Burkville, Alabama
Current Conditions -  °F | °C
As of 2:55 AM on Thursday 23 Oct 2014 (Local Time) from K1A9 Reporting Station
Clear Clear  
Wind Chill: 53°   Ceiling: Unl
Heat Index: 53°   Visibility: 10mi
Dew Point: 42°   Wind: 3mph
Humidity: 66%   Direction: 30°NNE
Pressure: 30.08"   Gusts: NA
Location:  32.3083°N, 86.6314°W
Report Text: K1A9 230755Z AUTO 03003KT 10SM CLR 12/05 A3008 RMK AO2 T01150054
Loading
Personal Weather Stations






























Interactive Weather Map
Tropical Storm Tracking
New forecast layout! Learn more

10-Day Weather Forecast

Advertisements
Track Severe Weather on mobile